Weather at Newark Liberty International Airport

Public forecast

Using degrees Fahrenheit for public forecast. Weather courtesy of forecast.io.

Current aviation weather report (METAR) for Newark Liberty International Airport

Retrieved 2021/10/23 03:51 UTC (20 minutes ago):

KEWR 230351Z 35007KT 10SM BKN055 BKN250 15/08 A2993 RMK AO2 SLP135 T01500078

Aviation forecast (TAF) for Newark Liberty International Airport

Retrieved 2021-10-23 00:22 UTC (4 hours ago):

TAF KEWR 222320Z 2300/2406 32009KT P6SM BKN060 FM230500 36007KT P6SM BKN050 FM231600 32007KT P6SM BKN050 FM232100 27007KT P6SM BKN060 FM240200 31005KT P6SM SCT060 SCT250